createdAt,value
2023-03-06T00:00:35.211Z,2.21
2023-03-06T00:03:03.452Z,2.44
2023-03-06T00:05:31.844Z,2.30
2023-03-06T00:08:01.742Z,2.08
2023-03-06T00:10:32.515Z,2.15
2023-03-06T00:13:04.244Z,2.26
2023-03-06T00:15:33.050Z,2.22
2023-03-06T00:18:03.655Z,2.25
2023-03-06T00:20:32.074Z,2.49
2023-03-06T00:23:01.823Z,2.27
2023-03-06T00:25:30.031Z,2.41
2023-03-06T00:27:58.559Z,2.20
2023-03-06T00:30:27.199Z,2.17
2023-03-06T00:32:56.064Z,2.22
2023-03-06T00:35:25.253Z,2.30
2023-03-06T00:37:53.562Z,2.11
2023-03-06T00:40:23.473Z,2.05
2023-03-06T00:42:51.744Z,2.08
2023-03-06T00:45:21.234Z,2.02
2023-03-06T00:47:49.593Z,2.04
2023-03-06T00:50:17.962Z,2.01
2023-03-06T00:52:46.706Z,2.27
2023-03-06T00:55:14.956Z,2.27
2023-03-06T00:57:44.528Z,2.05
2023-03-06T01:00:14.594Z,2.19
2023-03-06T01:02:43.084Z,2.09
2023-03-06T01:05:13.905Z,2.17
2023-03-06T01:07:42.271Z,2.09
2023-03-06T01:10:13.886Z,2.19
2023-03-06T01:12:43.715Z,2.25
2023-03-06T01:15:14.698Z,2.17
2023-03-06T01:17:42.891Z,2.18
2023-03-06T01:20:14.970Z,2.10
2023-03-06T01:22:43.513Z,2.01
2023-03-06T01:25:13.246Z,2.15
2023-03-06T01:27:41.403Z,2.13
2023-03-06T01:30:14.767Z,2.16
2023-03-06T01:32:43.076Z,2.19
2023-03-06T01:35:12.548Z,2.04
2023-03-06T01:37:41.966Z,2.12
2023-03-06T01:40:13.208Z,1.97
2023-03-06T01:42:42.943Z,2.25
2023-03-06T01:46:03.568Z,2.01
2023-03-06T01:48:33.236Z,2.15
2023-03-06T01:51:01.435Z,2.01
2023-03-06T01:53:30.009Z,1.97
2023-03-06T01:55:58.180Z,2.07
2023-03-06T01:58:26.442Z,2.07
2023-03-06T02:00:54.810Z,2.22
2023-03-06T02:03:28.045Z,2.10
2023-03-06T02:05:59.711Z,1.90
2023-03-06T02:08:29.225Z,2.00
2023-03-06T02:11:11.923Z,2.22
2023-03-06T02:13:41.467Z,1.87
2023-03-06T02:16:11.837Z,1.87
2023-03-06T02:18:41.781Z,1.93
2023-03-06T02:21:20.111Z,2.00
2023-03-06T02:24:00.855Z,2.06
2023-03-06T02:26:32.665Z,2.15
2023-03-06T02:29:01.160Z,1.99
2023-03-06T02:31:32.064Z,2.14
2023-03-06T02:34:08.675Z,1.92
2023-03-06T02:36:42.766Z,2.08
2023-03-06T02:39:11.442Z,2.09
2023-03-06T02:41:41.185Z,2.12
2023-03-06T02:44:10.016Z,2.05
2023-03-06T02:46:38.423Z,1.94
2023-03-06T02:49:06.564Z,2.12
2023-03-06T02:51:36.878Z,1.99
2023-03-06T02:54:05.318Z,2.05
2023-03-06T02:56:33.510Z,2.10
2023-03-06T02:59:03.077Z,2.12
2023-03-06T03:01:31.810Z,2.10
2023-03-06T03:04:00.116Z,2.09
2023-03-06T03:06:29.361Z,2.12
2023-03-06T03:08:57.566Z,2.13
2023-03-06T03:11:26.467Z,2.00
2023-03-06T03:13:54.792Z,1.94
2023-03-06T03:16:27.077Z,2.09
2023-03-06T03:18:59.170Z,1.81
2023-03-06T03:21:28.629Z,1.96
2023-03-06T03:23:57.303Z,1.71
2023-03-06T03:26:28.879Z,2.04
2023-03-06T03:29:17.362Z,1.97
2023-03-06T03:31:47.057Z,1.79
2023-03-06T03:34:15.545Z,1.83
2023-03-06T03:36:44.446Z,1.93
2023-03-06T03:39:14.056Z,1.82
2023-03-06T03:41:43.349Z,1.84
2023-03-06T03:44:12.409Z,1.84
2023-03-06T03:46:41.114Z,1.82
2023-03-06T03:49:15.872Z,1.80
2023-03-06T03:51:46.045Z,1.88
2023-03-06T03:54:14.714Z,1.91
2023-03-06T03:56:46.600Z,1.89
2023-03-06T03:59:23.357Z,1.90
2023-03-06T04:02:05.418Z,1.92
2023-03-06T04:04:40.674Z,1.95
2023-03-06T04:07:09.626Z,2.09
2023-03-06T04:09:38.648Z,2.14
2023-03-06T04:12:08.188Z,2.15
2023-03-06T04:14:38.037Z,1.89
2023-03-06T04:17:07.160Z,1.86
2023-03-06T04:19:35.424Z,1.78
2023-03-06T04:22:05.116Z,1.87
2023-03-06T04:24:36.269Z,1.80
2023-03-06T04:27:04.812Z,1.71
2023-03-06T04:29:35.456Z,1.62
2023-03-06T04:32:03.905Z,1.82
2023-03-06T04:34:32.260Z,1.66
2023-03-06T04:37:00.560Z,1.78
2023-03-06T04:39:30.122Z,1.77
2023-03-06T04:41:58.555Z,1.65
2023-03-06T04:44:26.644Z,1.71
2023-03-06T04:46:54.782Z,1.83
2023-03-06T04:49:22.968Z,1.78
2023-03-06T04:51:51.133Z,1.64
2023-03-06T04:54:19.350Z,1.63
2023-03-06T04:56:48.826Z,1.75
2023-03-06T04:59:17.016Z,1.63
2023-03-06T05:01:45.316Z,1.60
2023-03-06T05:04:13.670Z,1.82
2023-03-06T05:06:41.860Z,1.80
2023-03-06T05:09:10.059Z,1.79
2023-03-06T05:11:38.240Z,1.89
2023-03-06T05:14:07.735Z,1.75
2023-03-06T05:16:35.960Z,1.85
2023-03-06T05:19:04.341Z,1.85
2023-03-06T05:21:32.475Z,1.82
2023-03-06T05:24:00.928Z,1.86
2023-03-06T05:26:29.088Z,1.72
2023-03-06T05:28:57.345Z,1.81
2023-03-06T05:31:26.990Z,1.89
2023-03-06T05:33:55.239Z,1.84
2023-03-06T05:36:23.367Z,1.93
2023-03-06T05:38:52.161Z,1.85
2023-03-06T05:41:20.318Z,1.82
2023-03-06T05:43:48.665Z,1.85
2023-03-06T05:46:17.007Z,1.89
2023-03-06T05:48:47.104Z,1.72
2023-03-06T05:51:15.639Z,1.71
2023-03-06T05:53:43.933Z,1.90
2023-03-06T05:56:12.038Z,1.88
2023-03-06T05:58:40.479Z,1.80
2023-03-06T06:01:15.026Z,1.90
2023-03-06T06:03:43.939Z,1.85
2023-03-06T06:06:16.129Z,1.81
2023-03-06T06:08:44.697Z,1.86
2023-03-06T06:11:14.467Z,1.70
2023-03-06T06:13:43.535Z,1.84
2023-03-06T06:16:15.624Z,1.90
2023-03-06T06:18:44.549Z,1.69
2023-03-06T06:21:15.649Z,1.84
2023-03-06T06:23:44.162Z,1.73
2023-03-06T06:26:12.847Z,1.76
2023-03-06T06:28:41.092Z,1.79
2023-03-06T06:31:10.575Z,1.81
2023-03-06T06:33:38.995Z,1.87
2023-03-06T06:36:15.843Z,1.97
2023-03-06T06:38:44.060Z,1.88
2023-03-06T06:44:01.936Z,2.02
2023-03-06T06:47:18.198Z,1.97
2023-03-06T06:49:18.753Z,1.89
2023-03-06T06:51:48.248Z,1.95
2023-03-06T06:54:16.395Z,2.06
2023-03-06T06:56:44.623Z,1.91
2023-03-06T06:59:17.501Z,1.95
2023-03-06T07:01:46.371Z,1.94
2023-03-06T07:04:15.154Z,2.14
2023-03-06T07:06:43.751Z,2.11
2023-03-06T07:09:14.594Z,2.19
2023-03-06T07:11:43.249Z,2.12
2023-03-06T07:14:11.472Z,2.12
2023-03-06T07:16:39.989Z,2.04
2023-03-06T07:19:09.098Z,1.90
2023-03-06T07:21:37.245Z,2.05
2023-03-06T07:24:06.057Z,1.99
2023-03-06T07:26:35.772Z,1.99
2023-03-06T07:29:05.152Z,2.17
2023-03-06T07:31:33.446Z,2.10
2023-03-06T07:34:04.717Z,2.27
2023-03-06T07:36:34.536Z,2.09
2023-03-06T07:39:02.791Z,2.25
2023-03-06T07:41:30.928Z,2.16
2023-03-06T07:44:00.616Z,2.11
2023-03-06T07:46:29.294Z,2.27
2023-03-06T07:48:58.158Z,2.32
2023-03-06T07:51:26.415Z,2.38
2023-03-06T07:53:54.671Z,2.37
2023-03-06T07:56:22.924Z,2.52
2023-03-06T07:58:51.259Z,2.39
2023-03-06T08:01:24.532Z,2.80
2023-03-06T08:03:53.527Z,2.68
2023-03-06T08:06:30.009Z,2.32
2023-03-06T08:09:02.011Z,2.52
2023-03-06T08:11:33.150Z,2.78
2023-03-06T08:14:01.896Z,2.28
2023-03-06T08:16:32.213Z,2.26
2023-03-06T08:19:00.496Z,2.43
2023-03-06T08:21:29.986Z,2.39
2023-03-06T08:23:58.348Z,2.49
2023-03-06T08:26:28.406Z,2.68
2023-03-06T08:28:59.294Z,2.85
2023-03-06T08:31:33.658Z,2.71
2023-03-06T08:34:06.199Z,2.88
2023-03-06T08:36:34.809Z,2.52
2023-03-06T08:39:03.263Z,2.73
2023-03-06T08:41:32.230Z,2.58
2023-03-06T08:44:00.622Z,2.68
2023-03-06T08:46:31.773Z,2.83
2023-03-06T08:49:00.253Z,2.83
2023-03-06T08:51:29.510Z,2.92
2023-03-06T08:53:59.017Z,2.89
2023-03-06T08:56:29.454Z,3.13
2023-03-06T08:59:00.109Z,3.03
2023-03-06T09:01:32.865Z,2.97
2023-03-06T09:04:03.029Z,3.31
2023-03-06T09:06:33.867Z,3.12
2023-03-06T09:09:02.196Z,2.95
2023-03-06T09:11:30.460Z,3.08
2023-03-06T09:13:59.133Z,3.15
2023-03-06T09:16:28.328Z,3.18
2023-03-06T09:18:58.729Z,3.18
2023-03-06T09:21:28.569Z,3.18
2023-03-06T09:23:57.071Z,3.12
2023-03-06T09:26:39.737Z,3.13
2023-03-06T09:29:12.502Z,3.11
2023-03-06T09:31:40.826Z,3.20
2023-03-06T09:34:10.374Z,3.35
2023-03-06T09:36:54.925Z,3.10
2023-03-06T09:39:24.995Z,3.34
2023-03-06T09:41:54.186Z,3.25
2023-03-06T09:44:27.521Z,3.21
2023-03-06T09:47:23.955Z,3.58
2023-03-06T09:50:11.179Z,3.72
2023-03-06T09:52:52.238Z,3.65
2023-03-06T09:55:23.274Z,3.64
2023-03-06T09:57:58.946Z,3.75
2023-03-06T10:00:35.061Z,3.46
2023-03-06T10:03:21.235Z,3.55
2023-03-06T10:05:58.215Z,3.64
2023-03-06T10:08:31.280Z,3.95
2023-03-06T10:11:03.679Z,3.81
2023-03-06T10:13:40.250Z,3.59
2023-03-06T10:16:27.606Z,3.85
2023-03-06T10:18:57.956Z,3.66
2023-03-06T10:21:45.581Z,3.66
2023-03-06T10:24:43.471Z,3.81
2023-03-06T10:27:23.539Z,3.79
2023-03-06T10:30:04.296Z,3.74
2023-03-06T10:32:48.718Z,3.99
2023-03-06T10:35:23.305Z,3.90
2023-03-06T10:37:59.083Z,3.94
2023-03-06T10:40:39.363Z,3.83
2023-03-06T10:43:12.462Z,3.99
2023-03-06T10:45:52.366Z,4.04
2023-03-06T10:48:24.300Z,3.75
2023-03-06T10:50:54.852Z,3.94
2023-03-06T10:53:29.008Z,3.87
2023-03-06T10:56:00.144Z,4.00
2023-03-06T10:58:31.429Z,3.74
2023-03-06T11:01:07.923Z,3.91
2023-03-06T11:03:37.340Z,3.79
2023-03-06T11:06:13.661Z,3.90
2023-03-06T11:08:45.414Z,4.00
2023-03-06T11:11:22.443Z,4.17
2023-03-06T11:13:58.997Z,4.01
2023-03-06T11:16:31.340Z,4.19
2023-03-06T11:19:03.868Z,4.23
2023-03-06T11:21:35.170Z,4.18
2023-03-06T11:24:09.646Z,3.79
2023-03-06T11:26:45.834Z,3.90
2023-03-06T11:29:29.589Z,3.97
2023-03-06T11:32:05.098Z,3.77
2023-03-06T11:34:42.582Z,3.77
2023-03-06T11:37:21.891Z,3.80
2023-03-06T11:40:01.430Z,3.68
2023-03-06T11:42:33.534Z,3.90
2023-03-06T11:45:23.108Z,3.85
2023-03-06T11:48:01.640Z,3.96
2023-03-06T11:50:35.823Z,4.01
2023-03-06T11:53:07.660Z,4.09
2023-03-06T11:55:50.462Z,3.92
2023-03-06T11:58:57.287Z,3.87
2023-03-06T12:01:33.719Z,3.81
2023-03-06T12:04:49.604Z,3.95
2023-03-06T12:07:26.538Z,4.31
2023-03-06T12:13:10.334Z,4.04
2023-03-06T12:16:02.776Z,4.35
2023-03-06T12:18:43.950Z,4.47
2023-03-06T12:21:23.941Z,4.10
2023-03-06T12:24:23.888Z,4.20
2023-03-06T12:27:10.019Z,4.29
2023-03-06T12:30:06.348Z,4.50
2023-03-06T12:32:48.679Z,4.61
2023-03-06T12:35:36.609Z,4.28
2023-03-06T12:38:26.721Z,4.35
2023-03-06T12:41:16.673Z,4.49
2023-03-06T12:44:29.254Z,4.78
2023-03-06T12:47:03.742Z,4.79
2023-03-06T12:49:38.658Z,4.65
2023-03-06T12:52:09.883Z,4.67
2023-03-06T12:54:41.683Z,4.96
2023-03-06T12:57:12.439Z,4.58
2023-03-06T12:59:47.144Z,4.79
2023-03-06T13:02:54.147Z,4.82
2023-03-06T13:06:14.712Z,4.89
2023-03-06T13:09:15.835Z,4.57
2023-03-06T13:12:26.165Z,4.50
2023-03-06T13:15:02.019Z,4.59
2023-03-06T13:17:37.821Z,4.68
2023-03-06T13:20:43.976Z,4.64
2023-03-06T13:23:52.421Z,4.65
2023-03-06T13:27:06.905Z,4.92
2023-03-06T13:30:47.064Z,4.83
2023-03-06T13:33:53.525Z,4.92
2023-03-06T13:36:31.101Z,5.01
2023-03-06T13:39:09.763Z,4.75
2023-03-06T13:41:56.403Z,4.84
2023-03-06T13:44:52.310Z,4.69
2023-03-06T13:48:21.110Z,4.96
2023-03-06T13:50:47.319Z,4.83
2023-03-06T13:54:16.436Z,4.84
2023-03-06T13:57:18.601Z,5.10
2023-03-06T14:00:32.986Z,4.91
2023-03-06T14:03:47.613Z,4.60
2023-03-06T14:06:54.497Z,4.82
2023-03-06T14:09:30.855Z,4.70
2023-03-06T14:12:06.927Z,4.60
2023-03-06T14:14:44.381Z,4.73
2023-03-06T14:17:26.426Z,4.78
2023-03-06T14:19:55.207Z,4.64
2023-03-06T14:22:25.899Z,4.95
2023-03-06T14:25:00.689Z,4.83
2023-03-06T14:27:45.690Z,4.56
2023-03-06T14:30:17.388Z,4.68
2023-03-06T14:32:46.625Z,4.69
2023-03-06T14:35:26.341Z,4.55
2023-03-06T14:38:01.551Z,4.58
2023-03-06T14:40:34.404Z,4.48
2023-03-06T14:43:21.952Z,4.57
2023-03-06T14:45:57.222Z,4.51
2023-03-06T14:48:27.934Z,4.77
2023-03-06T14:50:57.690Z,4.52
2023-03-06T14:53:31.402Z,4.74
2023-03-06T14:56:04.934Z,4.66
2023-03-06T14:58:38.718Z,4.75
2023-03-06T15:01:10.757Z,4.62
2023-03-06T15:03:46.505Z,4.82
2023-03-06T15:06:21.558Z,5.00
2023-03-06T15:08:59.732Z,4.71
2023-03-06T15:11:28.031Z,4.65
2023-03-06T15:14:04.403Z,4.89
2023-03-06T15:16:32.904Z,4.73
2023-03-06T15:19:02.610Z,4.62
2023-03-06T15:21:35.857Z,4.83
2023-03-06T15:24:36.073Z,4.99
2023-03-06T15:27:07.233Z,4.74
2023-03-06T15:29:38.887Z,4.64
2023-03-06T15:32:42.348Z,4.75
2023-03-06T15:35:32.684Z,4.75
2023-03-06T15:38:01.408Z,4.81
2023-03-06T15:40:32.983Z,4.82
2023-03-06T15:43:02.035Z,4.76
2023-03-06T15:45:31.875Z,4.60
2023-03-06T15:48:00.090Z,4.51
2023-03-06T15:50:30.397Z,4.76
2023-03-06T15:52:58.638Z,4.87
2023-03-06T15:55:27.443Z,4.72
2023-03-06T15:58:00.107Z,4.83
2023-03-06T16:00:29.861Z,4.57
2023-03-06T16:02:59.804Z,4.50
2023-03-06T16:05:28.989Z,4.56
2023-03-06T16:07:57.676Z,4.75
2023-03-06T16:10:28.621Z,4.59
2023-03-06T16:13:03.472Z,4.88
2023-03-06T16:15:39.104Z,4.72
2023-03-06T16:18:07.457Z,4.79
2023-03-06T16:20:35.783Z,4.69
2023-03-06T16:23:07.827Z,4.49
2023-03-06T16:25:36.121Z,4.59
2023-03-06T16:28:08.587Z,4.64
2023-03-06T16:30:38.280Z,4.51
2023-03-06T16:33:07.395Z,4.47
2023-03-06T16:35:35.587Z,4.64
2023-03-06T16:38:03.792Z,4.40
2023-03-06T16:40:37.603Z,4.41
2023-03-06T16:43:08.410Z,4.47
2023-03-06T16:45:40.047Z,4.19
2023-03-06T16:48:12.136Z,4.35
2023-03-06T16:50:42.105Z,4.25
2023-03-06T16:53:10.591Z,4.14
2023-03-06T16:55:38.805Z,4.12
2023-03-06T16:58:09.416Z,4.23
2023-03-06T17:00:37.670Z,4.18
2023-03-06T17:03:05.985Z,4.15
2023-03-06T17:05:35.168Z,4.24
2023-03-06T17:08:04.016Z,4.29
2023-03-06T17:10:32.531Z,4.03
2023-03-06T17:13:00.661Z,4.05
2023-03-06T17:15:30.483Z,4.31
2023-03-06T17:17:59.485Z,4.05
2023-03-06T17:20:27.689Z,3.92
2023-03-06T17:22:55.879Z,4.05
2023-03-06T17:25:24.297Z,4.01
2023-03-06T17:27:52.480Z,4.01
2023-03-06T17:30:23.311Z,4.01
2023-03-06T17:32:53.687Z,3.99
2023-03-06T17:35:21.966Z,4.07
2023-03-06T17:37:50.292Z,3.86
2023-03-06T17:40:18.682Z,3.95
2023-03-06T17:42:46.826Z,3.82
2023-03-06T17:45:15.046Z,3.98
2023-03-06T17:47:43.210Z,4.02
2023-03-06T17:50:13.368Z,4.00
2023-03-06T17:52:41.502Z,4.02
2023-03-06T17:55:10.803Z,3.88
2023-03-06T17:57:38.933Z,3.87
2023-03-06T18:00:09.409Z,3.94
2023-03-06T18:02:45.294Z,3.87
2023-03-06T18:05:15.038Z,3.84
2023-03-06T18:07:43.314Z,3.92
2023-03-06T18:10:12.266Z,3.90
2023-03-06T18:12:40.402Z,3.83
2023-03-06T18:15:12.411Z,3.86
2023-03-06T18:17:40.552Z,3.87
2023-03-06T18:20:10.668Z,3.73
2023-03-06T18:22:40.169Z,3.92
2023-03-06T18:25:09.464Z,3.62
2023-03-06T18:27:37.884Z,3.70
2023-03-06T18:30:07.658Z,3.60
2023-03-06T18:32:39.262Z,3.59
2023-03-06T18:35:15.085Z,3.61
2023-03-06T18:37:48.573Z,3.76
2023-03-06T18:40:24.873Z,3.67
2023-03-06T18:42:54.310Z,3.67
2023-03-06T18:45:23.144Z,3.69
2023-03-06T18:47:51.965Z,3.69
2023-03-06T18:50:21.057Z,3.74
2023-03-06T18:52:51.375Z,3.78
2023-03-06T18:55:20.157Z,3.77
2023-03-06T18:57:48.836Z,3.84
2023-03-06T19:00:19.215Z,3.82
2023-03-06T19:02:47.844Z,3.71
2023-03-06T19:05:18.929Z,3.59
2023-03-06T19:07:53.076Z,3.54
2023-03-06T19:10:25.392Z,3.53
2023-03-06T19:12:56.551Z,3.65
2023-03-06T19:15:27.649Z,3.56
2023-03-06T19:18:00.200Z,3.56
2023-03-06T19:20:33.283Z,3.55
2023-03-06T19:23:06.576Z,3.49
2023-03-06T19:25:38.406Z,3.59
2023-03-06T19:28:13.743Z,3.54
2023-03-06T19:30:49.808Z,3.46
2023-03-06T19:33:23.664Z,3.50
2023-03-06T19:36:04.263Z,3.60
2023-03-06T19:38:38.920Z,3.64
2023-03-06T19:41:15.472Z,3.73
2023-03-06T19:43:44.718Z,3.65
2023-03-06T19:46:15.888Z,3.73
2023-03-06T19:48:53.406Z,3.63
2023-03-06T19:51:21.921Z,3.69
2023-03-06T19:53:51.675Z,3.75
2023-03-06T19:56:23.692Z,3.63
2023-03-06T19:58:53.123Z,3.78
2023-03-06T20:01:23.604Z,3.71
2023-03-06T20:03:58.713Z,3.67
2023-03-06T20:06:29.620Z,3.72
2023-03-06T20:08:59.647Z,3.75
2023-03-06T20:11:30.946Z,3.62
2023-03-06T20:14:01.381Z,3.52
2023-03-06T20:16:39.690Z,3.62
2023-03-06T20:19:12.945Z,3.48
2023-03-06T20:21:46.686Z,3.50
2023-03-06T20:24:18.809Z,3.38
2023-03-06T20:26:51.855Z,3.39
2023-03-06T20:29:20.523Z,3.37
2023-03-06T20:31:49.203Z,3.35
2023-03-06T20:34:17.721Z,3.25
2023-03-06T20:36:46.202Z,3.15
2023-03-06T20:39:19.214Z,3.12
2023-03-06T20:41:48.771Z,3.03
2023-03-06T20:44:20.290Z,3.08
2023-03-06T20:46:55.344Z,3.12
2023-03-06T20:49:27.429Z,3.09
2023-03-06T20:52:02.181Z,3.13
2023-03-06T20:54:32.165Z,3.10
2023-03-06T20:57:02.504Z,3.08
2023-03-06T20:59:31.048Z,3.10
2023-03-06T21:01:59.576Z,3.11
2023-03-06T21:04:27.819Z,3.17
2023-03-06T21:06:56.881Z,3.26
2023-03-06T21:09:25.299Z,3.27
2023-03-06T21:11:55.132Z,3.24
2023-03-06T21:14:25.576Z,3.28
2023-03-06T21:16:54.015Z,3.26
2023-03-06T21:19:25.123Z,3.33
2023-03-06T21:21:56.741Z,3.24
2023-03-06T21:24:26.840Z,3.29
2023-03-06T21:26:57.080Z,3.34
2023-03-06T21:29:25.814Z,3.38
2023-03-06T21:31:54.338Z,3.41
2023-03-06T21:34:22.683Z,3.57
2023-03-06T21:36:51.063Z,3.52
2023-03-06T21:39:19.475Z,3.45
2023-03-06T21:41:47.913Z,3.41
2023-03-06T21:44:17.708Z,3.31
2023-03-06T21:46:45.890Z,3.36
2023-03-06T21:49:14.040Z,3.35
2023-03-06T21:51:42.423Z,3.36
2023-03-06T21:54:13.011Z,3.21
2023-03-06T21:56:41.405Z,3.15
2023-03-06T21:59:09.582Z,3.28
2023-03-06T22:01:39.414Z,3.27
2023-03-06T22:04:07.811Z,3.37
2023-03-06T22:06:36.662Z,3.16
2023-03-06T22:09:05.285Z,3.10
2023-03-06T22:11:37.006Z,2.99
2023-03-06T22:14:05.811Z,2.96
2023-03-06T22:16:34.444Z,2.99
2023-03-06T22:19:04.257Z,3.21
2023-03-06T22:21:32.536Z,2.94
2023-03-06T22:24:01.078Z,2.96
2023-03-06T22:26:31.257Z,2.84
2023-03-06T22:28:59.496Z,2.87
2023-03-06T22:31:29.524Z,3.00
2023-03-06T22:34:00.371Z,2.89
2023-03-06T22:36:31.729Z,2.75
2023-03-06T22:39:05.269Z,2.71
2023-03-06T22:41:33.738Z,2.67
2023-03-06T22:44:03.307Z,2.72
2023-03-06T22:46:32.563Z,2.75
2023-03-06T22:49:02.230Z,2.73
2023-03-06T22:51:31.957Z,2.68
2023-03-06T22:54:00.237Z,2.72
2023-03-06T22:56:28.617Z,2.57
2023-03-06T22:58:57.584Z,2.60
2023-03-06T23:01:28.096Z,2.58
2023-03-06T23:03:59.223Z,2.54
2023-03-06T23:06:31.852Z,2.54
2023-03-06T23:09:03.477Z,2.63
2023-03-06T23:11:31.979Z,2.52
2023-03-06T23:14:20.401Z,2.59
2023-03-06T23:17:07.776Z,2.55
2023-03-06T23:19:54.716Z,2.56
2023-03-06T23:22:43.128Z,2.59
2023-03-06T23:25:30.407Z,2.53
2023-03-06T23:27:58.811Z,2.59
2023-03-06T23:30:27.023Z,2.54
2023-03-06T23:32:55.620Z,2.61
2023-03-06T23:35:24.036Z,2.56
2023-03-06T23:37:53.620Z,2.70
2023-03-06T23:40:22.301Z,2.59
2023-03-06T23:42:50.519Z,2.59
2023-03-06T23:45:18.955Z,2.61
2023-03-06T23:47:47.224Z,2.56
2023-03-06T23:50:15.976Z,2.58
2023-03-06T23:52:44.205Z,2.62
2023-03-06T23:55:14.120Z,2.53
2023-03-06T23:57:42.523Z,2.54
